createdAt,value
2018-06-14T07:01:11.222Z,5.00
2018-06-14T07:02:11.804Z,5.90
2018-06-14T07:03:12.425Z,5.20
2018-06-14T07:04:13.098Z,5.70
2018-06-14T07:05:13.686Z,5.50
2018-06-14T07:06:14.311Z,5.10
2018-06-14T07:08:15.197Z,4.60
2018-06-14T07:09:15.773Z,4.90
2018-06-14T07:10:16.396Z,5.10
2018-06-14T07:11:16.994Z,4.90
2018-06-14T07:12:17.552Z,4.90
2018-06-14T07:13:18.164Z,4.60
2018-06-14T07:14:18.763Z,4.90
2018-06-14T07:15:19.353Z,4.40
2018-06-14T07:16:19.916Z,4.30
2018-06-14T07:17:20.533Z,4.50
2018-06-14T07:18:21.183Z,4.50
2018-06-14T07:19:21.753Z,4.30
2018-06-14T07:20:22.347Z,4.80
2018-06-14T07:21:22.983Z,4.90
2018-06-14T07:22:23.570Z,4.70
2018-06-14T07:23:24.195Z,4.40
2018-06-14T07:24:24.791Z,4.40
2018-06-14T07:25:25.366Z,4.20
2018-06-14T07:26:25.995Z,4.10
2018-06-14T07:27:26.584Z,3.80
2018-06-14T07:28:27.210Z,4.00
2018-06-14T07:29:27.761Z,4.00
2018-06-14T07:30:28.345Z,3.80
2018-06-14T07:31:28.928Z,4.20
2018-06-14T07:32:29.559Z,3.40
2018-06-14T07:33:30.145Z,3.30
2018-06-14T07:35:30.976Z,2.90
2018-06-14T07:36:31.538Z,2.90
2018-06-14T07:37:32.121Z,2.70
2018-06-14T07:38:32.699Z,2.50
2018-06-14T07:39:33.277Z,3.00
2018-06-14T07:41:34.133Z,2.80
2018-06-14T07:42:34.711Z,2.40
2018-06-14T07:43:35.309Z,2.60
2018-06-14T07:46:53.220Z,2.50
2018-06-14T07:47:53.826Z,2.20
2018-06-14T07:48:54.443Z,2.00
2018-06-14T07:49:55.064Z,2.20
2018-06-14T07:50:55.649Z,1.90
2018-06-14T07:51:56.233Z,1.70
2018-06-14T07:52:56.801Z,1.40
2018-06-14T07:54:57.640Z,1.70
2018-06-14T08:04:46.435Z,0.90
2018-06-14T08:05:47.020Z,1.60
2018-06-14T08:07:47.991Z,1.40
2018-06-14T08:08:48.601Z,1.50
2018-06-14T08:09:49.202Z,1.50
2018-06-14T08:10:49.817Z,1.50
2018-06-14T08:11:50.396Z,1.40
2018-06-14T08:12:50.992Z,1.50
2018-06-14T08:13:51.567Z,1.60
2018-06-14T08:14:52.150Z,1.80
2018-06-14T08:15:52.764Z,1.70
2018-06-14T08:16:53.369Z,1.80
2018-06-14T08:17:53.960Z,1.40
2018-06-14T08:18:54.545Z,1.90
2018-06-14T08:20:55.410Z,1.80
2018-06-14T08:21:56.007Z,1.70
2018-06-14T08:22:56.590Z,1.60
2018-06-14T08:23:57.166Z,1.50
2018-06-14T08:24:57.741Z,1.90
2018-06-14T08:25:58.302Z,1.60
2018-06-14T08:26:58.856Z,1.70
2018-06-14T08:27:59.434Z,1.70
2018-06-14T08:29:00.034Z,1.70
2018-06-14T08:30:00.657Z,1.60
2018-06-14T08:31:01.238Z,1.80
2018-06-14T08:32:01.852Z,1.50
2018-06-14T08:33:02.438Z,1.80
2018-06-14T08:34:03.019Z,1.80
2018-06-14T08:35:03.591Z,1.70
2018-06-14T08:36:04.215Z,2.00
2018-06-14T08:37:04.812Z,1.90
2018-06-14T08:38:05.436Z,1.90
2018-06-14T08:41:08.856Z,2.10
2018-06-14T08:43:09.702Z,2.10
2018-06-14T08:45:10.556Z,2.00
2018-06-14T08:46:11.121Z,1.90
2018-06-14T08:47:11.703Z,1.80
2018-06-14T08:48:12.284Z,1.80
2018-06-14T08:49:12.893Z,1.90
2018-06-14T08:50:13.515Z,1.70
2018-06-14T08:51:14.087Z,2.10
2018-06-14T08:52:14.654Z,2.10
2018-06-14T08:53:20.276Z,2.10
2018-06-14T08:54:21.000Z,2.10
2018-06-14T08:56:21.886Z,2.30
2018-06-14T08:58:22.849Z,1.90
2018-06-14T08:59:23.429Z,2.10
2018-06-14T09:00:24.063Z,2.00
2018-06-14T09:02:24.965Z,2.20
2018-06-14T09:03:25.579Z,2.10
2018-06-14T09:04:26.216Z,1.90
2018-06-14T09:05:26.798Z,2.00
2018-06-14T09:06:27.364Z,2.30
2018-06-14T09:07:28.007Z,1.90
2018-06-14T09:08:28.589Z,2.00
2018-06-14T09:09:29.163Z,1.70
2018-06-14T09:10:29.752Z,1.80
2018-06-14T09:12:30.594Z,1.90
2018-06-14T09:13:31.286Z,2.00
2018-06-14T09:14:31.885Z,1.90
2018-06-14T09:15:34.328Z,2.00
2018-06-14T09:16:34.915Z,2.00
2018-06-14T09:17:35.478Z,1.90
2018-06-14T09:18:36.065Z,2.00
2018-06-14T09:19:36.643Z,2.00
2018-06-14T09:20:37.228Z,1.80
2018-06-14T09:21:37.812Z,1.80
2018-06-14T09:22:38.375Z,1.90
2018-06-14T09:23:38.944Z,1.90
2018-06-14T09:24:39.531Z,2.00
2018-06-14T09:25:40.094Z,1.90
2018-06-14T09:26:40.722Z,1.70
2018-06-14T09:27:41.335Z,1.90
2018-06-14T09:28:41.898Z,1.70
2018-06-14T09:29:42.483Z,2.00
2018-06-14T09:30:43.078Z,2.00
2018-06-14T09:31:43.667Z,1.90
2018-06-14T09:32:44.235Z,2.00
2018-06-14T09:33:44.859Z,2.10
2018-06-14T09:34:45.449Z,2.10
2018-06-14T09:35:47.007Z,1.80
2018-06-14T09:36:47.615Z,2.00
2018-06-14T09:37:48.281Z,2.00
2018-06-14T09:38:48.882Z,2.10
2018-06-14T09:39:49.510Z,2.00
2018-06-14T09:40:50.075Z,2.10
2018-06-14T09:41:50.662Z,1.80
2018-06-14T09:42:51.272Z,2.00
2018-06-14T09:43:51.985Z,1.90
2018-06-14T09:44:52.602Z,1.90
2018-06-14T09:46:53.445Z,1.90
2018-06-14T09:47:54.908Z,1.80
2018-06-14T09:48:55.512Z,1.60
2018-06-14T09:49:56.113Z,1.80
2018-06-14T09:50:56.671Z,1.80
2018-06-14T09:51:57.422Z,1.80
2018-06-14T09:52:57.989Z,1.90
2018-06-14T09:53:58.564Z,2.10
2018-06-14T09:54:59.166Z,2.00
2018-06-14T09:55:59.759Z,2.20
2018-06-14T09:57:00.357Z,2.00
2018-06-14T09:58:00.934Z,2.00
2018-06-14T09:59:01.538Z,2.00
2018-06-14T10:00:02.178Z,2.00
2018-06-14T10:01:02.761Z,2.10
2018-06-14T10:02:03.365Z,1.80
2018-06-14T10:03:04.588Z,2.00
2018-06-14T10:04:05.166Z,2.10
2018-06-14T10:05:05.756Z,2.10
2018-06-14T10:07:06.578Z,2.20
2018-06-14T10:08:07.190Z,2.10
2018-06-14T10:09:07.766Z,1.90
2018-06-14T10:10:08.360Z,1.90
2018-06-14T10:11:09.023Z,1.80
2018-06-14T10:12:09.641Z,1.90
2018-06-14T10:13:13.504Z,1.90
2018-06-14T10:14:14.148Z,1.90
2018-06-14T10:15:14.778Z,2.00
2018-06-14T10:16:15.377Z,2.00
2018-06-14T10:17:16.004Z,1.80
2018-06-14T10:18:16.579Z,2.00
2018-06-14T10:20:17.442Z,1.90
2018-06-14T10:21:18.053Z,1.90
2018-06-14T10:22:18.785Z,1.90
2018-06-14T10:23:19.396Z,1.90
2018-06-14T10:25:20.300Z,1.80
2018-06-14T10:26:20.915Z,1.80
2018-06-14T10:27:21.497Z,1.90
2018-06-14T10:29:22.537Z,2.00
2018-06-14T10:31:23.406Z,2.10
2018-06-14T10:32:23.984Z,1.90
2018-06-14T10:33:24.564Z,1.90
2018-06-14T10:34:25.140Z,2.00
2018-06-14T10:35:25.795Z,1.80
2018-06-14T10:36:26.367Z,1.80
2018-06-14T10:37:26.952Z,1.60
2018-06-14T10:38:27.642Z,1.80
2018-06-14T10:39:28.206Z,2.20
2018-06-14T10:40:28.789Z,2.00
2018-06-14T10:41:30.139Z,2.20
2018-06-14T10:42:31.991Z,1.80
2018-06-14T10:43:32.628Z,1.70
2018-06-14T10:45:33.489Z,1.80
2018-06-14T10:46:34.125Z,1.90
2018-06-14T10:48:35.016Z,1.90
2018-06-14T10:49:35.589Z,2.20
2018-06-14T10:50:36.187Z,2.10
2018-06-14T10:51:36.841Z,1.90
2018-06-14T10:52:37.534Z,2.00
2018-06-14T10:53:38.117Z,2.00
2018-06-14T10:54:38.693Z,1.90
2018-06-14T10:55:39.822Z,1.90
2018-06-14T10:56:40.401Z,1.70
2018-06-14T10:57:40.994Z,1.70
2018-06-14T10:58:41.640Z,1.90
2018-06-14T11:00:42.536Z,1.70
2018-06-14T11:01:44.106Z,1.80
2018-06-14T11:02:44.718Z,1.80
2018-06-14T11:03:45.746Z,2.00
2018-06-14T11:04:50.894Z,2.30
2018-06-14T11:05:59.980Z,1.90
2018-06-14T11:07:07.979Z,1.90
2018-06-14T11:08:10.288Z,2.00
2018-06-14T11:09:11.000Z,1.90
2018-06-14T11:10:11.608Z,2.00
2018-06-14T11:11:12.189Z,1.80
2018-06-14T11:12:12.802Z,1.60
2018-06-14T11:13:13.403Z,1.70
2018-06-14T11:14:14.042Z,1.90
2018-06-14T11:15:14.718Z,1.80
2018-06-14T11:16:15.335Z,1.90
2018-06-14T11:17:15.952Z,1.90
2018-06-14T11:18:16.622Z,1.90
2018-06-14T11:19:17.203Z,2.00
2018-06-14T11:20:18.708Z,2.00
2018-06-14T11:21:19.349Z,2.10
2018-06-14T11:22:19.927Z,2.00
2018-06-14T11:24:20.794Z,1.60
2018-06-14T11:25:21.367Z,1.90
2018-06-14T11:26:21.965Z,1.80
2018-06-14T11:27:22.567Z,1.80
2018-06-14T11:28:23.173Z,1.80
2018-06-14T11:29:23.811Z,1.90
2018-06-14T11:30:24.405Z,1.90
2018-06-14T11:31:25.077Z,1.90
2018-06-14T11:32:25.647Z,1.80
2018-06-14T11:33:26.953Z,1.70
2018-06-14T11:34:27.519Z,1.70
2018-06-14T11:35:28.126Z,1.60
2018-06-14T11:36:28.777Z,1.90
2018-06-14T11:37:29.384Z,2.10
2018-06-14T11:38:29.980Z,2.30
2018-06-14T11:39:30.602Z,1.90
2018-06-14T11:40:31.275Z,1.70
2018-06-14T11:41:31.860Z,2.10
2018-06-14T11:42:32.440Z,1.70
2018-06-14T11:43:33.011Z,2.10
2018-06-14T11:44:33.621Z,1.80
2018-06-14T11:45:34.259Z,1.70
2018-06-14T11:46:35.042Z,1.90
2018-06-14T11:47:35.641Z,1.80
2018-06-14T11:48:36.242Z,1.70
2018-06-14T11:49:36.831Z,1.90
2018-06-14T11:50:37.408Z,1.80
2018-06-14T11:51:37.994Z,1.60
2018-06-14T11:52:38.591Z,2.00
2018-06-14T11:53:39.215Z,1.80
2018-06-14T11:54:39.779Z,1.70
2018-06-14T11:55:40.371Z,1.70
2018-06-14T11:56:41.001Z,1.80
2018-06-14T11:57:41.600Z,1.80
2018-06-14T11:58:42.287Z,2.00
2018-06-14T11:59:42.868Z,2.00
2018-06-14T12:00:43.446Z,1.60
2018-06-14T12:01:44.088Z,1.60
2018-06-14T12:02:44.683Z,1.80
2018-06-14T12:03:45.261Z,1.70
2018-06-14T12:04:45.849Z,1.80
2018-06-14T12:05:46.448Z,2.00
2018-06-14T12:07:47.328Z,2.30
2018-06-14T12:08:47.919Z,2.00
2018-06-14T12:10:48.770Z,1.80
2018-06-14T12:11:49.322Z,1.90
2018-06-14T12:12:49.922Z,2.00
2018-06-14T12:13:50.491Z,2.00
2018-06-14T12:14:51.143Z,1.90
2018-06-14T12:15:51.805Z,2.10
2018-06-14T12:16:52.375Z,2.10
2018-06-14T12:17:53.699Z,1.80
2018-06-14T12:18:54.294Z,2.20
2018-06-14T12:19:54.927Z,2.00
2018-06-14T12:20:55.549Z,2.00
2018-06-14T12:22:56.465Z,2.30
2018-06-14T12:23:57.066Z,2.20
2018-06-14T12:24:57.744Z,2.10
2018-06-14T12:25:58.374Z,2.00
2018-06-14T12:27:59.241Z,2.10
2018-06-14T12:28:59.802Z,2.00
2018-06-14T12:30:00.382Z,2.00
2018-06-14T12:31:01.101Z,1.90
2018-06-14T12:32:01.693Z,2.00
2018-06-14T12:33:02.286Z,2.20
2018-06-14T12:34:02.860Z,2.10
2018-06-14T12:35:03.473Z,1.90
2018-06-14T12:36:04.074Z,2.10
2018-06-14T12:37:04.670Z,2.10
2018-06-14T12:38:05.266Z,2.20
2018-06-14T12:39:05.889Z,1.80
2018-06-14T12:40:06.462Z,1.70
2018-06-14T12:41:07.657Z,2.00
2018-06-14T12:42:08.280Z,2.00
2018-06-14T12:43:08.874Z,2.10
2018-06-14T12:44:09.442Z,1.90
2018-06-14T12:45:10.080Z,1.90
2018-06-14T12:47:11.777Z,2.10
2018-06-14T12:48:12.371Z,1.90
2018-06-14T12:49:12.982Z,1.90
2018-06-14T12:50:13.577Z,1.70
2018-06-14T12:51:14.191Z,1.90
2018-06-14T12:52:14.798Z,1.90
2018-06-14T12:53:15.412Z,2.10
2018-06-14T12:54:16.018Z,1.90
2018-06-14T12:55:16.603Z,2.00
2018-06-14T12:56:17.262Z,1.80
2018-06-14T12:57:17.878Z,1.70
2018-06-14T12:58:18.508Z,1.90
2018-06-14T12:59:19.139Z,2.00
2018-06-14T13:00:19.726Z,2.10
2018-06-14T13:01:20.329Z,2.20
2018-06-14T13:02:20.958Z,2.00
2018-06-14T13:03:21.555Z,1.80
2018-06-14T13:04:22.207Z,2.00
2018-06-14T13:05:22.764Z,2.20
2018-06-14T13:06:23.513Z,2.30
2018-06-14T13:07:24.082Z,2.30
2018-06-14T13:08:24.675Z,2.00
2018-06-14T13:09:25.238Z,2.10
2018-06-14T13:10:25.783Z,2.10
2018-06-14T13:11:26.384Z,2.10
2018-06-14T13:12:26.987Z,2.10
2018-06-14T13:13:27.610Z,2.30
2018-06-14T13:14:28.227Z,2.30
2018-06-14T13:15:28.807Z,2.50
2018-06-14T13:16:29.388Z,2.20
2018-06-14T13:17:30.027Z,2.20
2018-06-14T13:18:30.620Z,2.00
2018-06-14T13:19:31.192Z,2.00
2018-06-14T13:20:31.754Z,2.30
2018-06-14T13:21:32.332Z,2.10
2018-06-14T13:22:32.988Z,2.10
2018-06-14T13:23:33.575Z,2.20
2018-06-14T13:24:34.137Z,2.20
2018-06-14T13:25:34.797Z,2.30
2018-06-14T13:26:35.368Z,2.10
2018-06-14T13:27:35.942Z,2.10
2018-06-14T13:28:36.546Z,2.20
2018-06-14T13:29:37.112Z,2.30
2018-06-14T13:30:37.670Z,2.10
2018-06-14T13:31:38.255Z,2.10
2018-06-14T13:32:38.830Z,2.30
2018-06-14T13:33:39.411Z,2.30
2018-06-14T13:34:40.483Z,2.10
2018-06-14T13:35:42.029Z,2.20
2018-06-14T13:37:42.888Z,2.30
2018-06-14T13:38:43.518Z,2.50
2018-06-14T13:39:44.176Z,2.20
2018-06-14T13:40:44.758Z,2.10
2018-06-14T13:41:45.336Z,2.00
2018-06-14T13:42:46.042Z,2.10
2018-06-14T13:44:47.006Z,2.30
2018-06-14T13:45:47.555Z,2.00
2018-06-14T13:46:48.148Z,2.10
2018-06-14T13:47:48.735Z,2.30
2018-06-14T13:48:49.403Z,2.10
2018-06-14T13:50:50.270Z,2.20
2018-06-14T13:51:50.855Z,2.40
2018-06-14T13:52:51.555Z,2.00
2018-06-14T13:53:52.200Z,2.10
2018-06-14T13:54:52.770Z,2.40
2018-06-14T13:55:53.327Z,2.40
2018-06-14T13:57:54.285Z,2.30
2018-06-14T13:58:54.893Z,2.40
2018-06-14T13:59:55.466Z,2.60
2018-06-14T14:00:56.211Z,2.30
2018-06-14T14:01:56.802Z,2.50
2018-06-14T14:02:57.380Z,2.50
2018-06-14T14:03:57.964Z,2.50
2018-06-14T14:04:58.540Z,2.30
2018-06-14T14:05:59.107Z,2.30
2018-06-14T14:06:59.695Z,2.20
2018-06-14T14:08:00.278Z,2.20
2018-06-14T14:09:00.848Z,2.10
2018-06-14T14:10:01.442Z,2.30
2018-06-14T14:11:02.005Z,2.10
2018-06-14T14:12:02.640Z,1.90
2018-06-14T14:13:03.220Z,1.90
2018-06-14T14:14:03.828Z,2.00
2018-06-14T14:15:04.390Z,2.20
2018-06-14T14:16:04.981Z,2.30
2018-06-14T14:17:05.582Z,2.70
2018-06-14T14:18:06.169Z,2.10
2018-06-14T14:19:06.733Z,2.20
2018-06-14T14:20:07.306Z,2.30
2018-06-14T14:21:07.875Z,2.20
2018-06-14T14:22:08.483Z,2.20
2018-06-14T14:23:09.106Z,2.40
2018-06-14T14:24:09.818Z,2.20
2018-06-14T14:25:10.396Z,2.10
2018-06-14T14:27:11.285Z,2.20
2018-06-14T14:28:12.010Z,1.80
2018-06-14T14:29:12.596Z,2.10
2018-06-14T14:30:13.238Z,2.40
2018-06-14T14:31:13.844Z,2.20
2018-06-14T14:32:14.405Z,2.10
2018-06-14T14:33:14.987Z,2.40
2018-06-14T14:34:15.700Z,2.30
2018-06-14T14:35:16.321Z,2.40
2018-06-14T14:36:16.977Z,2.40
2018-06-14T14:37:17.566Z,2.30
2018-06-14T14:38:18.278Z,2.30
2018-06-14T14:39:18.919Z,2.40
2018-06-14T14:40:19.490Z,2.40
2018-06-14T14:42:20.377Z,2.40
2018-06-14T14:43:20.958Z,1.90
2018-06-14T14:44:21.550Z,2.20
2018-06-14T14:45:22.174Z,2.40
2018-06-14T14:46:22.767Z,2.40
2018-06-14T14:47:23.378Z,2.10
2018-06-14T14:48:24.024Z,2.10
2018-06-14T14:49:24.614Z,2.00
2018-06-14T14:50:25.271Z,2.30
2018-06-14T14:51:25.838Z,2.30
2018-06-14T14:52:26.404Z,2.10
2018-06-14T14:53:27.010Z,2.40
2018-06-14T14:55:27.862Z,2.10
2018-06-14T14:57:28.731Z,2.10
2018-06-14T14:58:29.350Z,2.40
2018-06-14T14:59:29.952Z,2.30
2018-06-14T15:01:30.801Z,2.00
2018-06-14T15:02:31.388Z,2.30
2018-06-14T15:03:31.952Z,2.30
2018-06-14T15:05:32.938Z,2.50
2018-06-14T15:06:33.551Z,2.50
2018-06-14T15:07:34.124Z,3.00
2018-06-14T15:08:34.692Z,3.10
2018-06-14T15:09:35.259Z,3.00
2018-06-14T15:10:35.819Z,2.60
2018-06-14T15:12:36.697Z,2.60
2018-06-14T15:13:37.327Z,2.80
2018-06-14T15:14:37.894Z,2.60
2018-06-14T15:15:38.474Z,2.40
2018-06-14T15:16:39.043Z,2.60
2018-06-14T15:17:39.600Z,2.70
2018-06-14T15:18:40.164Z,2.60
2018-06-14T15:19:40.730Z,2.80
2018-06-14T15:20:41.295Z,2.70
2018-06-14T15:21:41.853Z,2.50
2018-06-14T15:22:42.423Z,2.50
2018-06-14T15:23:42.987Z,2.90
2018-06-14T15:24:43.555Z,2.60
2018-06-14T15:25:44.117Z,2.60
2018-06-14T15:26:44.699Z,2.90
2018-06-14T15:27:45.273Z,2.40
2018-06-14T15:28:45.836Z,2.70
2018-06-14T15:29:46.425Z,2.80
2018-06-14T15:30:47.008Z,2.70
2018-06-14T15:31:47.632Z,2.60
2018-06-14T15:33:48.550Z,2.50
2018-06-14T15:34:49.135Z,2.40
